Donets'k, Ukraine
Current Conditions -  °F | °C
As of 10:00 PM on Sunday 23 Nov 2014 (Local Time) from URRR Reporting Station
Clear Clear  
Wind Chill: 19°   Ceiling: Unl
Heat Index: 25°   Visibility: 5mi
Dew Point: 19°   Wind: 4mph
Humidity: 80%   Direction: 50°NE
Pressure: 30.36"   Gusts: NA
Location:  48.07°N, 37.77°E
Report Text: URRR 231900Z 05002MPS 020V080 P8000 NSC M04/M07 Q1028 04CLRD70NOSIG
Loading
Personal Weather Stations






























Interactive Weather Map New forecast layout! Learn more

10-Day Weather Forecast

Advertisements
Track Severe Weather on mobile